• Join FlightAware (Why Join?)
  • Login
  • US Flag 
04:56PM EDT


 

Airport Tracker/Info


-or-


 

Live Flight TrackerFlight Track Log ✈ G-EZED ✈ 09-Apr-2013 ✈ LIMC / MXP - LIRF / FCO

Flight Track Log - Related Links

Times and Time Zones

All times are in EDT time to prevent confusion due to time zone crossing. See the G-EZED flight status page for this flight to view local times or setup timezone preferences in your user account.

Time Position Orientation Groundspeed Altitude Reporting Facility
EDT Latitude Longitude Course Direction KTS MPH feet Rate Location/Type
08:57AM 44.9280 9.4176 145° Southeast  Level Estimated
08:57AM 45.6180 8.5590 145° Southeast 234 269 9,100  Level FlightAware
08:57AM 45.6090 8.5660 151° Southeast 255 293 9,500 2,040 Climbing FlightAware
08:57AM 45.5620 8.6290 137° Southeast 330 380 11,000 2,220 Climbing FlightAware
08:58AM 45.5200 8.6900 134° Southeast 361 415 12,700 3,120 Climbing FlightAware
08:59AM 45.4670 8.7700 133° Southeast 371 427 15,500 3,420 Climbing FlightAware
09:00AM 45.4090 8.8540 135° Southeast 385 443 17,900 2,880 Climbing FlightAware
09:00AM 45.3580 8.9280 134° Southeast 402 463 19,600 2,400 Climbing FlightAware
09:01AM 45.3080 9.0010 134° Southeast 421 484 21,100 2,400 Climbing FlightAware
09:02AM 45.2430 9.0940 135° Southeast 436 502 23,000 2,100 Climbing FlightAware
09:02AM 45.1850 9.1760 135° Southeast 460 529 24,100 1,020 Climbing FlightAware
09:03AM 45.1250 9.2620 135° Southeast 498 573 24,400 1,020 Climbing FlightAware
09:04AM 45.0470 9.3730 135° Southeast 515 593 25,600 2,220 Climbing FlightAware
09:04AM 44.9820 9.4670 134° Southeast 503 579 27,600 3,600 Climbing FlightAware
09:05AM 44.9100 9.5690 135° Southeast 471 542 30,700 2,400 Climbing FlightAware
09:06AM 44.8440 9.6600 136° Southeast 498 573 31,000 180 Climbing FlightAware
09:07AM 44.7750 9.7570 135° Southeast 504 580 31,000  Level FlightAware
09:07AM 44.7110 9.8440 136° Southeast 496 571 31,000  Level FlightAware
09:08AM 44.6310 9.9070 151° Southeast 479 551 31,000  Level FlightAware
09:09AM 44.5430 9.9720 152° Southeast 480 552 31,000  Level FlightAware
09:09AM 44.4650 10.0310 152° Southeast 479 551 31,000  Level FlightAware
09:10AM 44.3800 10.0930 152° Southeast 478 550 31,000  Level FlightAware
09:11AM 44.3000 10.1520 152° Southeast 480 552 31,000  Level FlightAware
09:11AM 44.2220 10.2090 152° Southeast 480 552 31,000  Level FlightAware
09:12AM 44.1320 10.2740 153° Southeast 480 552 31,000 60 Level FlightAware
09:13AM 44.0470 10.3360 152° Southeast 479 551 31,100  Climbing FlightAware
09:14AM 43.9700 10.3910 153° Southeast 481 554 31,000 -120 Descending FlightAware
09:14AM 43.8770 10.4590 152° Southeast 480 552 31,000  Level FlightAware
09:15AM 43.8020 10.5130 153° Southeast 479 551 31,000  Level FlightAware
09:16AM 43.7210 10.5610 157° South 465 535 31,000  Level FlightAware
09:16AM 43.6290 10.6030 162° South 460 529 31,000  Level FlightAware
09:17AM 43.5480 10.6410 161° South 459 528 31,000  Level FlightAware
09:18AM 43.4580 10.6820 162° South 458 527 31,000  Level FlightAware
09:18AM 43.3770 10.7200 161° South 458 527 31,000  Level FlightAware
09:19AM 43.2870 10.7610 162° South 459 528 31,000 -300 Level FlightAware
09:20AM 43.2180 10.7930 161° South 439 505 30,600 -840 Descending FlightAware
09:21AM 43.1350 10.8310 162° South 409 471 29,900 -1,020 Descending FlightAware
09:21AM 43.0560 10.8690 161° South 412 474 29,100 -1,380 Descending FlightAware
09:22AM 42.9950 10.9290 144° Southeast 441 507 28,000 -2,520 Descending FlightAware
09:23AM 42.9170 11.0120 142° Southeast 448 516 25,600 -3,180 Descending FlightAware
09:23AM 42.8540 11.0770 143° Southeast 457 526 23,500 -2,880 Descending FlightAware
09:24AM 42.7840 11.1500 143° Southeast 442 509 21,800 -1,800 Descending FlightAware
09:25AM 42.7160 11.2210 142° Southeast 403 464 21,000 -600 Descending FlightAware
09:25AM 42.6570 11.2820 143° Southeast 361 415 21,000 -780 Level FlightAware
09:26AM 42.6050 11.3350 143° Southeast 366 421 20,000 -1,800 Descending FlightAware
09:27AM 42.5480 11.3990 140° Southeast 374 430 18,500 -1,680 Descending FlightAware
09:28AM 42.5050 11.4650 131° Southeast 365 420 17,500 -1,560 Descending FlightAware
09:28AM 42.4510 11.5480 131° Southeast 356 410 16,100 -1,680 Descending FlightAware
09:29AM 42.4070 11.6130 133° Southeast 348 400 15,000 -1,680 Descending FlightAware
09:30AM 42.3560 11.6900 132° Southeast 337 388 13,800 -1,740 Descending FlightAware
09:31AM 42.3170 11.7500 131° Southeast 336 387 12,600 -1,680 Descending FlightAware
09:31AM 42.2740 11.8140 132° Southeast 325 374 11,500 -1,380 Descending FlightAware
09:32AM 42.2330 11.8760 132° Southeast 303 349 10,700 -1,380 Descending FlightAware
09:33AM 42.1940 11.9340 132° Southeast 286 329 9,700 -1,800 Descending FlightAware
09:33AM 42.1710 11.9690 132° Southeast 283 326 8,600 -2,400 Descending FlightAware
09:34AM 42.1440 12.0100 132° Southeast 289 333 7,500 -1,680 Descending FlightAware
09:34AM 42.1220 12.0420 133° Southeast 263 303 7,100 -1,320 Descending FlightAware
09:34AM 42.1040 12.0690 132° Southeast 255 293 6,300 -1,560 Descending FlightAware
09:35AM 42.0840 12.0980 133° Southeast 245 282 5,800 -1,740 Descending FlightAware
09:35AM 42.0550 12.1420 132° Southeast 230 265 4,600 -1,620 Descending FlightAware
09:36AM 42.0370 12.1680 133° Southeast 228 262 4,100 -1,200 Descending FlightAware
09:36AM 42.0230 12.1850 138° Southeast 220 253 3,700 -1,020 Descending FlightAware
09:36AM 42.0140 12.1900 158° South 212 244 3,600 -900 Descending FlightAware
09:37AM 41.9920 12.2000 161° South 208 239 3,100 -1,200 Descending FlightAware
09:37AM 41.9660 12.2110 163° South 205 236 2,500 -1,200 Descending FlightAware
09:38AM 41.9400 12.2220 163° South 199 229 2,000 -1,200 Descending FlightAware
09:38AM 41.9140 12.2330 163° South 154 177 1,500 -1,080 Descending FlightAware
09:39AM 41.9020 12.2380 163° South 138 159 1,200 -480 Descending FlightAware
09:39AM 41.8850 12.2450 163° South 138 159 1,100 -600 Descending FlightAware
09:40AM 41.8720 12.2500 164° South 106 122 600 -600 Descending FlightAware
09:40AM 41.8520 12.2600 160° South 106 122 400 -300 Descending FlightAware
09:43AM 41.8045 12.2508 188° South  Level Estimated
09:44AM 41.8045 12.2508 336° Northwest  Level Estimated
09:45AM 41.8045 12.2508 336° Northwest  Level Estimated